sensor_id;sensor_type;location;lat;lon;timestamp;P1;durP1;ratioP1;P2;durP2;ratioP2
77326;SDS011;66399;52.322;20.980;2023-04-24T00:07:25;6.30;;;3.70;;
77326;SDS011;66399;52.322;20.980;2023-04-24T00:11:30;6.20;;;3.60;;
77326;SDS011;66399;52.322;20.980;2023-04-24T00:15:35;8.40;;;4.20;;
77326;SDS011;66399;52.322;20.980;2023-04-24T00:23:45;9.20;;;4.10;;
77326;SDS011;66399;52.322;20.980;2023-04-24T00:31:54;9.10;;;4.10;;
77326;SDS011;66399;52.322;20.980;2023-04-24T00:40:03;8.50;;;4.70;;
77326;SDS011;66399;52.322;20.980;2023-04-24T00:44:10;5.90;;;4.00;;
77326;SDS011;66399;52.322;20.980;2023-04-24T00:52:18;8.90;;;4.30;;
77326;SDS011;66399;52.322;20.980;2023-04-24T00:56:24;7.60;;;3.90;;
77326;SDS011;66399;52.322;20.980;2023-04-24T01:08:37;7.60;;;4.40;;
77326;SDS011;66399;52.322;20.980;2023-04-24T01:12:43;9.30;;;4.70;;
77326;SDS011;66399;52.322;20.980;2023-04-24T01:16:48;9.20;;;4.10;;
77326;SDS011;66399;52.322;20.980;2023-04-24T01:20:55;8.40;;;4.10;;
77326;SDS011;66399;52.322;20.980;2023-04-24T01:25:01;6.70;;;3.90;;
77326;SDS011;66399;52.322;20.980;2023-04-24T01:29:07;8.90;;;4.30;;
77326;SDS011;66399;52.322;20.980;2023-04-24T01:37:16;8.10;;;4.70;;
77326;SDS011;66399;52.322;20.980;2023-04-24T01:45:25;9.40;;;4.30;;
77326;SDS011;66399;52.322;20.980;2023-04-24T01:49:30;9.30;;;4.50;;
77326;SDS011;66399;52.322;20.980;2023-04-24T01:53:35;7.90;;;4.50;;
77326;SDS011;66399;52.322;20.980;2023-04-24T01:57:41;8.80;;;4.10;;
77326;SDS011;66399;52.322;20.980;2023-04-24T02:01:46;8.00;;;5.00;;
77326;SDS011;66399;52.322;20.980;2023-04-24T02:05:51;9.40;;;4.50;;
77326;SDS011;66399;52.322;20.980;2023-04-24T02:09:56;7.70;;;4.20;;
77326;SDS011;66399;52.322;20.980;2023-04-24T02:18:05;9.00;;;4.60;;
77326;SDS011;66399;52.322;20.980;2023-04-24T02:22:11;8.50;;;4.70;;
77326;SDS011;66399;52.322;20.980;2023-04-24T02:26:16;11.70;;;5.00;;
77326;SDS011;66399;52.322;20.980;2023-04-24T02:30:22;7.90;;;4.30;;
77326;SDS011;66399;52.322;20.980;2023-04-24T02:34:27;8.70;;;4.80;;
77326;SDS011;66399;52.322;20.980;2023-04-24T02:38:32;11.20;;;4.70;;
77326;SDS011;66399;52.322;20.980;2023-04-24T02:42:38;9.50;;;4.60;;
77326;SDS011;66399;52.322;20.980;2023-04-24T02:50:47;10.10;;;4.30;;
77326;SDS011;66399;52.322;20.980;2023-04-24T02:54:52;11.20;;;4.70;;
77326;SDS011;66399;52.322;20.980;2023-04-24T02:58:58;9.80;;;4.30;;
77326;SDS011;66399;52.322;20.980;2023-04-24T03:03:04;8.60;;;4.90;;
77326;SDS011;66399;52.322;20.980;2023-04-24T03:07:09;10.60;;;4.70;;
77326;SDS011;66399;52.322;20.980;2023-04-24T03:11:14;10.90;;;4.90;;
77326;SDS011;66399;52.322;20.980;2023-04-24T03:15:20;8.80;;;4.80;;
77326;SDS011;66399;52.322;20.980;2023-04-24T03:19:25;10.50;;;4.80;;
77326;SDS011;66399;52.322;20.980;2023-04-24T03:23:31;13.00;;;5.10;;
77326;SDS011;66399;52.322;20.980;2023-04-24T03:27:36;9.00;;;4.80;;
77326;SDS011;66399;52.322;20.980;2023-04-24T03:31:43;9.50;;;4.80;;
77326;SDS011;66399;52.322;20.980;2023-04-24T03:35:48;8.70;;;4.40;;
77326;SDS011;66399;52.322;20.980;2023-04-24T03:39:53;10.00;;;4.70;;
77326;SDS011;66399;52.322;20.980;2023-04-24T03:43:59;8.80;;;4.60;;
77326;SDS011;66399;52.322;20.980;2023-04-24T03:48:07;7.40;;;3.80;;
77326;SDS011;66399;52.322;20.980;2023-04-24T03:52:13;8.50;;;4.40;;
77326;SDS011;66399;52.322;20.980;2023-04-24T03:56:31;9.40;;;5.40;;
77326;SDS011;66399;52.322;20.980;2023-04-24T04:00:36;9.70;;;4.50;;
77326;SDS011;66399;52.322;20.980;2023-04-24T04:18:27;10.50;;;5.10;;
77326;SDS011;66399;52.322;20.980;2023-04-24T04:22:32;8.80;;;5.10;;
77326;SDS011;66399;52.322;20.980;2023-04-24T04:26:37;7.40;;;4.20;;
77326;SDS011;66399;52.322;20.980;2023-04-24T04:43:58;9.70;;;4.90;;
77326;SDS011;66399;52.322;20.980;2023-04-24T04:56:50;8.00;;;4.00;;
77326;SDS011;66399;52.322;20.980;2023-04-24T05:00:56;11.20;;;5.40;;
77326;SDS011;66399;52.322;20.980;2023-04-24T05:05:14;17.00;;;5.20;;
77326;SDS011;66399;52.322;20.980;2023-04-24T05:09:20;11.10;;;5.20;;
77326;SDS011;66399;52.322;20.980;2023-04-24T05:17:46;9.30;;;4.20;;
77326;SDS011;66399;52.322;20.980;2023-04-24T05:21:51;13.40;;;5.60;;
77326;SDS011;66399;52.322;20.980;2023-04-24T05:26:02;15.10;;;5.50;;
77326;SDS011;66399;52.322;20.980;2023-04-24T05:30:11;10.20;;;5.20;;
77326;SDS011;66399;52.322;20.980;2023-04-24T05:34:16;10.30;;;5.40;;
77326;SDS011;66399;52.322;20.980;2023-04-24T05:38:25;13.20;;;5.40;;
77326;SDS011;66399;52.322;20.980;2023-04-24T05:42:30;10.20;;;5.10;;
77326;SDS011;66399;52.322;20.980;2023-04-24T05:46:35;19.50;;;6.80;;
77326;SDS011;66399;52.322;20.980;2023-04-24T05:55:18;16.00;;;5.60;;
77326;SDS011;66399;52.322;20.980;2023-04-24T05:59:24;24.00;;;6.30;;
77326;SDS011;66399;52.322;20.980;2023-04-24T06:03:29;12.80;;;7.10;;
77326;SDS011;66399;52.322;20.980;2023-04-24T06:12:15;18.20;;;6.20;;
77326;SDS011;66399;52.322;20.980;2023-04-24T06:16:20;18.00;;;6.20;;
77326;SDS011;66399;52.322;20.980;2023-04-24T06:20:25;12.30;;;6.20;;
77326;SDS011;66399;52.322;20.980;2023-04-24T06:24:39;14.60;;;6.50;;
77326;SDS011;66399;52.322;20.980;2023-04-24T06:28:44;16.80;;;6.20;;
77326;SDS011;66399;52.322;20.980;2023-04-24T06:32:50;13.60;;;6.10;;
77326;SDS011;66399;52.322;20.980;2023-04-24T06:45:54;14.50;;;6.00;;
77326;SDS011;66399;52.322;20.980;2023-04-24T06:49:59;9.80;;;5.40;;
77326;SDS011;66399;52.322;20.980;2023-04-24T06:54:05;13.10;;;5.30;;
77326;SDS011;66399;52.322;20.980;2023-04-24T07:02:31;11.50;;;5.50;;
77326;SDS011;66399;52.322;20.980;2023-04-24T07:06:36;12.00;;;6.20;;
77326;SDS011;66399;52.322;20.980;2023-04-24T07:14:56;15.70;;;6.30;;
77326;SDS011;66399;52.322;20.980;2023-04-24T07:19:01;12.60;;;6.10;;
77326;SDS011;66399;52.322;20.980;2023-04-24T07:23:10;17.60;;;6.30;;
77326;SDS011;66399;52.322;20.980;2023-04-24T07:27:16;12.20;;;5.90;;
77326;SDS011;66399;52.322;20.980;2023-04-24T07:31:21;17.00;;;5.90;;
77326;SDS011;66399;52.322;20.980;2023-04-24T07:44:35;11.00;;;5.60;;
77326;SDS011;66399;52.322;20.980;2023-04-24T07:48:41;10.60;;;5.90;;
77326;SDS011;66399;52.322;20.980;2023-04-24T07:52:46;21.10;;;10.40;;
77326;SDS011;66399;52.322;20.980;2023-04-24T08:19:07;11.30;;;6.20;;
77326;SDS011;66399;52.322;20.980;2023-04-24T08:23:12;9.40;;;5.80;;
77326;SDS011;66399;52.322;20.980;2023-04-24T08:36:26;13.90;;;6.60;;
77326;SDS011;66399;52.322;20.980;2023-04-24T08:45:18;13.60;;;6.00;;
77326;SDS011;66399;52.322;20.980;2023-04-24T08:54:04;12.10;;;6.40;;
77326;SDS011;66399;52.322;20.980;2023-04-24T08:58:09;11.90;;;6.70;;
77326;SDS011;66399;52.322;20.980;2023-04-24T09:02:40;11.80;;;6.50;;
77326;SDS011;66399;52.322;20.980;2023-04-24T09:07:10;9.30;;;5.90;;
77326;SDS011;66399;52.322;20.980;2023-04-24T09:38:31;8.00;;;6.00;;
77326;SDS011;66399;52.322;20.980;2023-04-24T09:56:06;9.70;;;4.70;;
77326;SDS011;66399;52.322;20.980;2023-04-24T10:00:26;9.80;;;5.00;;
77326;SDS011;66399;52.322;20.980;2023-04-24T10:04:32;8.40;;;5.00;;
77326;SDS011;66399;52.322;20.980;2023-04-24T10:17:23;11.80;;;5.10;;
77326;SDS011;66399;52.322;20.980;2023-04-24T10:21:29;7.40;;;4.50;;
77326;SDS011;66399;52.322;20.980;2023-04-24T10:25:35;9.50;;;4.30;;
77326;SDS011;66399;52.322;20.980;2023-04-24T10:29:50;10.80;;;4.80;;
77326;SDS011;66399;52.322;20.980;2023-04-24T10:33:56;9.40;;;4.80;;
77326;SDS011;66399;52.322;20.980;2023-04-24T10:42:29;7.70;;;4.80;;
77326;SDS011;66399;52.322;20.980;2023-04-24T10:46:55;7.40;;;4.60;;
77326;SDS011;66399;52.322;20.980;2023-04-24T10:59:44;6.80;;;4.90;;
77326;SDS011;66399;52.322;20.980;2023-04-24T11:03:54;7.70;;;4.50;;
77326;SDS011;66399;52.322;20.980;2023-04-24T11:12:36;5.70;;;4.60;;
77326;SDS011;66399;52.322;20.980;2023-04-24T11:16:50;6.50;;;4.30;;
77326;SDS011;66399;52.322;20.980;2023-04-24T11:21:12;7.70;;;4.20;;
77326;SDS011;66399;52.322;20.980;2023-04-24T11:25:18;10.30;;;5.10;;
77326;SDS011;66399;52.322;20.980;2023-04-24T11:33:37;8.10;;;4.70;;
77326;SDS011;66399;52.322;20.980;2023-04-24T11:37:56;8.30;;;4.80;;
77326;SDS011;66399;52.322;20.980;2023-04-24T11:42:05;7.70;;;4.60;;
77326;SDS011;66399;52.322;20.980;2023-04-24T11:51:02;7.20;;;5.00;;
77326;SDS011;66399;52.322;20.980;2023-04-24T11:59:30;9.30;;;4.00;;
77326;SDS011;66399;52.322;20.980;2023-04-24T12:03:43;6.60;;;4.70;;
77326;SDS011;66399;52.322;20.980;2023-04-24T12:07:52;6.90;;;4.50;;
77326;SDS011;66399;52.322;20.980;2023-04-24T12:17:13;5.30;;;3.60;;
77326;SDS011;66399;52.322;20.980;2023-04-24T12:21:19;5.40;;;4.10;;
77326;SDS011;66399;52.322;20.980;2023-04-24T12:25:26;5.90;;;3.70;;
77326;SDS011;66399;52.322;20.980;2023-04-24T12:38:43;6.90;;;4.60;;
77326;SDS011;66399;52.322;20.980;2023-04-24T12:42:50;6.80;;;4.50;;
77326;SDS011;66399;52.322;20.980;2023-04-24T12:51:17;6.60;;;4.00;;
77326;SDS011;66399;52.322;20.980;2023-04-24T12:55:22;5.30;;;3.70;;
77326;SDS011;66399;52.322;20.980;2023-04-24T13:04:08;9.40;;;3.90;;
77326;SDS011;66399;52.322;20.980;2023-04-24T13:08:14;13.70;;;3.90;;
77326;SDS011;66399;52.322;20.980;2023-04-24T13:12:34;8.10;;;3.60;;
77326;SDS011;66399;52.322;20.980;2023-04-24T13:16:39;10.80;;;3.70;;
77326;SDS011;66399;52.322;20.980;2023-04-24T13:24:58;9.40;;;3.50;;
77326;SDS011;66399;52.322;20.980;2023-04-24T13:29:05;9.20;;;3.40;;
77326;SDS011;66399;52.322;20.980;2023-04-24T13:42:00;8.60;;;3.30;;
77326;SDS011;66399;52.322;20.980;2023-04-24T13:46:09;4.80;;;3.10;;
77326;SDS011;66399;52.322;20.980;2023-04-24T13:50:15;4.60;;;3.20;;
77326;SDS011;66399;52.322;20.980;2023-04-24T13:54:20;6.00;;;3.50;;
77326;SDS011;66399;52.322;20.980;2023-04-24T14:02:41;6.10;;;3.20;;
77326;SDS011;66399;52.322;20.980;2023-04-24T14:06:47;5.00;;;3.70;;
77326;SDS011;66399;52.322;20.980;2023-04-24T14:19:40;3.70;;;2.80;;
77326;SDS011;66399;52.322;20.980;2023-04-24T14:24:07;5.50;;;3.10;;
77326;SDS011;66399;52.322;20.980;2023-04-24T14:28:12;5.00;;;3.30;;
77326;SDS011;66399;52.322;20.980;2023-04-24T14:32:30;4.90;;;2.90;;
77326;SDS011;66399;52.322;20.980;2023-04-24T14:36:35;5.80;;;3.40;;
77326;SDS011;66399;52.322;20.980;2023-04-24T14:49:26;5.20;;;3.40;;
77326;SDS011;66399;52.322;20.980;2023-04-24T14:53:31;5.20;;;3.30;;
77326;SDS011;66399;52.322;20.980;2023-04-24T15:02:32;7.40;;;3.60;;
77326;SDS011;66399;52.322;20.980;2023-04-24T15:20:02;5.50;;;3.40;;
77326;SDS011;66399;52.322;20.980;2023-04-24T15:28:56;7.50;;;4.10;;
77326;SDS011;66399;52.322;20.980;2023-04-24T15:37:15;5.10;;;3.10;;
77326;SDS011;66399;52.322;20.980;2023-04-24T15:41:21;7.10;;;3.70;;
77326;SDS011;66399;52.322;20.980;2023-04-24T15:49:41;5.70;;;3.90;;
77326;SDS011;66399;52.322;20.980;2023-04-24T15:53:46;6.10;;;3.40;;
77326;SDS011;66399;52.322;20.980;2023-04-24T16:29:07;6.10;;;3.50;;
77326;SDS011;66399;52.322;20.980;2023-04-24T16:33:13;7.30;;;3.50;;
77326;SDS011;66399;52.322;20.980;2023-04-24T16:41:30;9.10;;;3.80;;
77326;SDS011;66399;52.322;20.980;2023-04-24T16:45:35;9.10;;;3.70;;
77326;SDS011;66399;52.322;20.980;2023-04-24T17:02:55;6.30;;;3.40;;
77326;SDS011;66399;52.322;20.980;2023-04-24T17:07:00;4.70;;;3.10;;
77326;SDS011;66399;52.322;20.980;2023-04-24T17:11:06;7.40;;;3.90;;
77326;SDS011;66399;52.322;20.980;2023-04-24T17:19:26;5.10;;;3.70;;
77326;SDS011;66399;52.322;20.980;2023-04-24T17:23:49;5.80;;;3.70;;
77326;SDS011;66399;52.322;20.980;2023-04-24T17:27:55;5.70;;;3.70;;
77326;SDS011;66399;52.322;20.980;2023-04-24T17:32:00;6.40;;;3.60;;
77326;SDS011;66399;52.322;20.980;2023-04-24T17:36:06;6.40;;;3.90;;
77326;SDS011;66399;52.322;20.980;2023-04-24T17:40:11;9.30;;;4.10;;
77326;SDS011;66399;52.322;20.980;2023-04-24T17:44:17;8.60;;;4.30;;
77326;SDS011;66399;52.322;20.980;2023-04-24T17:48:22;8.80;;;4.40;;
77326;SDS011;66399;52.322;20.980;2023-04-24T17:52:28;12.80;;;4.60;;
77326;SDS011;66399;52.322;20.980;2023-04-24T17:56:33;10.20;;;4.30;;
77326;SDS011;66399;52.322;20.980;2023-04-24T18:00:38;9.00;;;4.10;;
77326;SDS011;66399;52.322;20.980;2023-04-24T18:04:43;9.00;;;4.00;;
77326;SDS011;66399;52.322;20.980;2023-04-24T18:08:49;8.00;;;4.00;;
77326;SDS011;66399;52.322;20.980;2023-04-24T18:12:54;8.20;;;3.60;;
77326;SDS011;66399;52.322;20.980;2023-04-24T18:16:59;8.00;;;4.50;;
77326;SDS011;66399;52.322;20.980;2023-04-24T18:21:05;8.20;;;4.20;;
77326;SDS011;66399;52.322;20.980;2023-04-24T18:25:10;9.30;;;4.70;;
77326;SDS011;66399;52.322;20.980;2023-04-24T18:29:16;7.70;;;4.30;;
77326;SDS011;66399;52.322;20.980;2023-04-24T18:33:21;9.20;;;4.30;;
77326;SDS011;66399;52.322;20.980;2023-04-24T18:37:26;8.20;;;5.10;;
77326;SDS011;66399;52.322;20.980;2023-04-24T18:41:31;8.50;;;4.70;;
77326;SDS011;66399;52.322;20.980;2023-04-24T18:45:38;10.20;;;4.40;;
77326;SDS011;66399;52.322;20.980;2023-04-24T18:49:43;10.20;;;5.20;;
77326;SDS011;66399;52.322;20.980;2023-04-24T18:53:48;9.90;;;4.80;;
77326;SDS011;66399;52.322;20.980;2023-04-24T18:57:54;9.30;;;4.60;;
77326;SDS011;66399;52.322;20.980;2023-04-24T19:01:59;10.60;;;5.20;;
77326;SDS011;66399;52.322;20.980;2023-04-24T19:06:04;7.30;;;4.50;;
77326;SDS011;66399;52.322;20.980;2023-04-24T19:10:10;11.60;;;4.80;;
77326;SDS011;66399;52.322;20.980;2023-04-24T19:14:16;10.50;;;5.00;;
77326;SDS011;66399;52.322;20.980;2023-04-24T19:18:22;10.20;;;4.90;;
77326;SDS011;66399;52.322;20.980;2023-04-24T19:22:29;11.10;;;5.20;;
77326;SDS011;66399;52.322;20.980;2023-04-24T19:26:34;9.80;;;4.30;;
77326;SDS011;66399;52.322;20.980;2023-04-24T19:30:40;11.40;;;4.70;;
77326;SDS011;66399;52.322;20.980;2023-04-24T19:34:45;6.80;;;3.50;;
77326;SDS011;66399;52.322;20.980;2023-04-24T19:38:50;8.00;;;3.30;;
77326;SDS011;66399;52.322;20.980;2023-04-24T19:42:55;7.50;;;3.50;;
77326;SDS011;66399;52.322;20.980;2023-04-24T19:47:01;7.80;;;3.90;;
77326;SDS011;66399;52.322;20.980;2023-04-24T19:51:06;7.40;;;3.70;;
77326;SDS011;66399;52.322;20.980;2023-04-24T19:55:11;5.80;;;3.40;;
77326;SDS011;66399;52.322;20.980;2023-04-24T19:59:16;7.50;;;3.60;;
77326;SDS011;66399;52.322;20.980;2023-04-24T20:03:22;7.40;;;4.00;;
77326;SDS011;66399;52.322;20.980;2023-04-24T20:07:36;6.00;;;3.20;;
77326;SDS011;66399;52.322;20.980;2023-04-24T20:11:41;6.70;;;3.90;;
77326;SDS011;66399;52.322;20.980;2023-04-24T20:15:48;9.20;;;4.20;;
77326;SDS011;66399;52.322;20.980;2023-04-24T20:19:53;9.40;;;4.50;;
77326;SDS011;66399;52.322;20.980;2023-04-24T20:23:58;7.90;;;4.80;;
77326;SDS011;66399;52.322;20.980;2023-04-24T20:28:04;8.00;;;4.60;;
77326;SDS011;66399;52.322;20.980;2023-04-24T20:32:09;7.90;;;3.70;;
77326;SDS011;66399;52.322;20.980;2023-04-24T20:36:14;9.50;;;4.90;;
77326;SDS011;66399;52.322;20.980;2023-04-24T20:40:20;8.00;;;4.80;;
77326;SDS011;66399;52.322;20.980;2023-04-24T20:44:25;9.10;;;4.80;;
77326;SDS011;66399;52.322;20.980;2023-04-24T20:48:30;8.80;;;5.00;;
77326;SDS011;66399;52.322;20.980;2023-04-24T20:52:35;9.30;;;4.60;;
77326;SDS011;66399;52.322;20.980;2023-04-24T20:56:41;9.60;;;5.20;;
77326;SDS011;66399;52.322;20.980;2023-04-24T21:00:46;9.10;;;5.00;;
77326;SDS011;66399;52.322;20.980;2023-04-24T21:04:51;8.40;;;4.80;;
77326;SDS011;66399;52.322;20.980;2023-04-24T21:08:57;9.10;;;5.10;;
77326;SDS011;66399;52.322;20.980;2023-04-24T21:13:02;9.40;;;4.70;;
77326;SDS011;66399;52.322;20.980;2023-04-24T21:17:07;8.30;;;5.40;;
77326;SDS011;66399;52.322;20.980;2023-04-24T21:21:13;8.10;;;5.10;;
77326;SDS011;66399;52.322;20.980;2023-04-24T21:25:18;8.50;;;5.10;;
77326;SDS011;66399;52.322;20.980;2023-04-24T21:29:23;9.20;;;4.80;;
77326;SDS011;66399;52.322;20.980;2023-04-24T21:33:29;9.80;;;5.10;;
77326;SDS011;66399;52.322;20.980;2023-04-24T21:37:34;10.10;;;5.20;;
77326;SDS011;66399;52.322;20.980;2023-04-24T21:41:42;7.70;;;4.80;;
77326;SDS011;66399;52.322;20.980;2023-04-24T21:45:48;11.40;;;5.20;;
77326;SDS011;66399;52.322;20.980;2023-04-24T21:49:55;7.40;;;4.90;;
77326;SDS011;66399;52.322;20.980;2023-04-24T21:54:00;9.20;;;5.10;;
77326;SDS011;66399;52.322;20.980;2023-04-24T21:58:05;7.00;;;4.70;;
77326;SDS011;66399;52.322;20.980;2023-04-24T22:02:11;6.90;;;4.20;;
77326;SDS011;66399;52.322;20.980;2023-04-24T22:06:17;11.30;;;5.10;;
77326;SDS011;66399;52.322;20.980;2023-04-24T22:10:22;7.70;;;4.90;;
77326;SDS011;66399;52.322;20.980;2023-04-24T22:14:27;11.20;;;4.70;;
77326;SDS011;66399;52.322;20.980;2023-04-24T22:18:32;7.60;;;4.80;;
77326;SDS011;66399;52.322;20.980;2023-04-24T22:39:05;6.70;;;4.00;;
77326;SDS011;66399;52.322;20.980;2023-04-24T22:43:10;7.60;;;4.30;;
77326;SDS011;66399;52.322;20.980;2023-04-24T22:47:15;7.10;;;4.60;;
77326;SDS011;66399;52.322;20.980;2023-04-24T22:51:22;7.40;;;4.50;;
77326;SDS011;66399;52.322;20.980;2023-04-24T22:55:27;8.50;;;5.00;;
77326;SDS011;66399;52.322;20.980;2023-04-24T22:59:33;8.00;;;4.80;;
77326;SDS011;66399;52.322;20.980;2023-04-24T23:03:39;8.30;;;4.80;;
77326;SDS011;66399;52.322;20.980;2023-04-24T23:07:44;8.60;;;5.30;;
77326;SDS011;66399;52.322;20.980;2023-04-24T23:11:49;7.80;;;5.10;;
77326;SDS011;66399;52.322;20.980;2023-04-24T23:15:55;8.60;;;4.90;;
77326;SDS011;66399;52.322;20.980;2023-04-24T23:20:00;8.00;;;4.80;;
77326;SDS011;66399;52.322;20.980;2023-04-24T23:24:06;9.10;;;4.70;;
77326;SDS011;66399;52.322;20.980;2023-04-24T23:28:11;8.90;;;4.70;;
77326;SDS011;66399;52.322;20.980;2023-04-24T23:32:16;9.10;;;4.90;;
77326;SDS011;66399;52.322;20.980;2023-04-24T23:36:22;9.30;;;5.30;;
77326;SDS011;66399;52.322;20.980;2023-04-24T23:40:27;9.80;;;5.50;;
77326;SDS011;66399;52.322;20.980;2023-04-24T23:44:32;9.30;;;5.30;;
77326;SDS011;66399;52.322;20.980;2023-04-24T23:48:38;8.40;;;4.80;;
77326;SDS011;66399;52.322;20.980;2023-04-24T23:52:43;8.60;;;5.80;;
77326;SDS011;66399;52.322;20.980;2023-04-24T23:56:49;9.30;;;5.50;;
